VTK519 UNNT-UHHH
Flight info
| Callsign | VTK519 |
|---|---|
| Flight time | 4h 35m |
| Altitude | 35000 |
| Route | K0819F350 DIMID G828 NN A300 TOKMO B911 ENS N992 BUMON/K0837F370 N992 TORMA A946 IVADA |
| Aircraft | B737/M-SDE2E3FGHIRWXY/LB1 |
Departure
| Time | 2026-05-05 06:11 |
|---|---|
| Airport | Novosibirsk Tolmachevo Airport (UNNT) |
Arrival
| Time | 2026-05-05 10:46 |
|---|---|
| Airport | Khabarovsk Novy Airport (UHHH) |
| Time | Latitude | Longitude | Altitude | Speed | Heading |
|---|---|---|---|---|---|
| 2026-05-05 05:56 | 55.01151 | 82.66835 | 372 ft | 0 kts | 171° |
| 2026-05-05 06:06 | 55.01139 | 82.66838 | 399 ft | 3 kts | 171° |
| 2026-05-05 06:06 | 55.01119 | 82.66844 | 372 ft | 3 kts | 171° |
| 2026-05-05 06:07 | 55.01099 | 82.66854 | 372 ft | 3 kts | 152° |
| 2026-05-05 06:07 | 55.01083 | 82.66888 | 372 ft | 5 kts | 120° |
| 2026-05-05 06:07 | 55.01080 | 82.66953 | 372 ft | 6 kts | 83° |
| 2026-05-05 06:07 | 55.01087 | 82.67042 | 372 ft | 8 kts | 81° |
| 2026-05-05 06:08 | 55.01097 | 82.67154 | 372 ft | 10 kts | 82° |
| 2026-05-05 06:08 | 55.01107 | 82.67276 | 372 ft | 10 kts | 86° |
| 2026-05-05 06:08 | 55.01110 | 82.67395 | 372 ft | 10 kts | 87° |
| 2026-05-05 06:08 | 55.01146 | 82.67487 | 372 ft | 9 kts | 33° |
| 2026-05-05 06:09 | 55.01201 | 82.67544 | 372 ft | 9 kts | 31° |
| 2026-05-05 06:09 | 55.01258 | 82.67604 | 372 ft | 10 kts | 31° |
| 2026-05-05 06:09 | 55.01320 | 82.67668 | 372 ft | 10 kts | 31° |
| 2026-05-05 06:09 | 55.01379 | 82.67730 | 371 ft | 10 kts | 31° |
| 2026-05-05 06:10 | 55.01438 | 82.67786 | 371 ft | 10 kts | 18° |
| 2026-05-05 06:10 | 55.01485 | 82.67729 | 370 ft | 9 kts | 275° |
| 2026-05-05 06:10 | 55.01476 | 82.67615 | 370 ft | 12 kts | 262° |
| 2026-05-05 06:10 | 55.01432 | 82.67129 | 373 ft | 74 kts | 261° |
| 2026-05-05 06:11 | 55.01318 | 82.65874 | 372 ft | 134 kts | 261° |
| 2026-05-05 06:11 | 55.01144 | 82.64007 | 481 ft | 169 kts | 260° |
| 2026-05-05 06:11 | 55.00973 | 82.61991 | 1170 ft | 168 kts | 259° |
| 2026-05-05 06:11 | 55.00793 | 82.59976 | 1989 ft | 167 kts | 258° |
| 2026-05-05 06:12 | 55.00614 | 82.58015 | 2838 ft | 165 kts | 258° |
| 2026-05-05 06:12 | 55.00433 | 82.56017 | 3543 ft | 167 kts | 258° |
| 2026-05-05 06:12 | 55.00282 | 82.53902 | 4013 ft | 190 kts | 269° |
| 2026-05-05 06:12 | 55.00797 | 82.51628 | 4260 ft | 228 kts | 305° |
| 2026-05-05 06:13 | 55.02012 | 82.49537 | 4570 ft | 259 kts | 312° |
| 2026-05-05 06:13 | 55.03348 | 82.47407 | 5524 ft | 260 kts | 312° |
| 2026-05-05 06:13 | 55.04688 | 82.45298 | 6562 ft | 258 kts | 311° |
| 2026-05-05 06:13 | 55.06013 | 82.43208 | 7497 ft | 259 kts | 311° |
| 2026-05-05 06:14 | 55.07349 | 82.41084 | 8382 ft | 259 kts | 311° |
| 2026-05-05 06:14 | 55.08669 | 82.38952 | 9246 ft | 259 kts | 311° |
| 2026-05-05 06:14 | 55.09994 | 82.36794 | 10061 ft | 261 kts | 310° |
| 2026-05-05 06:14 | 55.11339 | 82.34581 | 10551 ft | 275 kts | 311° |
| 2026-05-05 06:15 | 55.12785 | 82.32192 | 10791 ft | 295 kts | 311° |
| 2026-05-05 06:15 | 55.14301 | 82.29704 | 11392 ft | 301 kts | 312° |
| 2026-05-05 06:15 | 55.15821 | 82.27214 | 12313 ft | 298 kts | 312° |
| 2026-05-05 06:15 | 55.17339 | 82.24721 | 13023 ft | 302 kts | 312° |
| 2026-05-05 06:16 | 55.18878 | 82.22189 | 13711 ft | 306 kts | 314° |
| 2026-05-05 06:16 | 55.20692 | 82.20140 | 14323 ft | 320 kts | 333° |
| 2026-05-05 06:16 | 55.22907 | 82.19298 | 15009 ft | 333 kts | 350° |
| 2026-05-05 06:16 | 55.25259 | 82.19764 | 15643 ft | 350 kts | 8° |
| 2026-05-05 06:17 | 55.27601 | 82.21046 | 16338 ft | 356 kts | 11° |
| 2026-05-05 06:17 | 55.29963 | 82.22492 | 16886 ft | 364 kts | 12° |
| 2026-05-05 06:17 | 55.32364 | 82.24005 | 17490 ft | 368 kts | 12° |
| 2026-05-05 06:17 | 55.34778 | 82.25529 | 18198 ft | 369 kts | 12° |
| 2026-05-05 06:18 | 55.37206 | 82.27049 | 18798 ft | 372 kts | 12° |
| 2026-05-05 06:18 | 55.39651 | 82.28565 | 19368 ft | 374 kts | 11° |
| 2026-05-05 06:18 | 55.42120 | 82.30084 | 19934 ft | 377 kts | 11° |
| 2026-05-05 06:18 | 55.44599 | 82.31603 | 20480 ft | 379 kts | 11° |
| 2026-05-05 06:19 | 55.47104 | 82.33135 | 21028 ft | 382 kts | 11° |
| 2026-05-05 06:19 | 55.49628 | 82.34678 | 21582 ft | 385 kts | 11° |
| 2026-05-05 06:19 | 55.52166 | 82.36230 | 22121 ft | 388 kts | 11° |
| 2026-05-05 06:19 | 55.54722 | 82.37795 | 22649 ft | 390 kts | 11° |
| 2026-05-05 06:20 | 55.57299 | 82.39375 | 23147 ft | 394 kts | 11° |
| 2026-05-05 06:20 | 55.59907 | 82.40974 | 23609 ft | 398 kts | 11° |
| 2026-05-05 06:20 | 55.62531 | 82.42588 | 24055 ft | 401 kts | 11° |
| 2026-05-05 06:20 | 55.65171 | 82.44214 | 24583 ft | 403 kts | 11° |
| 2026-05-05 06:21 | 55.67817 | 82.45849 | 25157 ft | 404 kts | 11° |
| 2026-05-05 06:21 | 55.70473 | 82.47491 | 25707 ft | 406 kts | 11° |
| 2026-05-05 06:21 | 55.73154 | 82.49149 | 26215 ft | 409 kts | 11° |
| 2026-05-05 06:21 | 55.75848 | 82.50816 | 26727 ft | 412 kts | 11° |
| 2026-05-05 06:22 | 55.78560 | 82.52497 | 27238 ft | 414 kts | 11° |
| 2026-05-05 06:22 | 55.81292 | 82.54195 | 27746 ft | 417 kts | 11° |
| 2026-05-05 06:22 | 55.84030 | 82.55906 | 28201 ft | 421 kts | 10° |
| 2026-05-05 06:22 | 55.86811 | 82.57639 | 28579 ft | 425 kts | 10° |
| 2026-05-05 06:23 | 55.88657 | 82.58788 | 28870 ft | 426 kts | 10° |
| 2026-05-05 06:23 | 55.91466 | 82.60541 | 29340 ft | 428 kts | 10° |
| 2026-05-05 06:23 | 55.94282 | 82.62304 | 29775 ft | 430 kts | 10° |
| 2026-05-05 06:23 | 55.97115 | 82.64080 | 30234 ft | 430 kts | 9° |
| 2026-05-05 06:24 | 55.99923 | 82.65847 | 30773 ft | 427 kts | 9° |
| 2026-05-05 06:24 | 56.02726 | 82.67664 | 31126 ft | 434 kts | 14° |
| 2026-05-05 06:24 | 56.05339 | 82.70661 | 31313 ft | 464 kts | 35° |
| 2026-05-05 06:24 | 56.07403 | 82.75279 | 31603 ft | 487 kts | 54° |
| 2026-05-05 06:25 | 56.08642 | 82.81024 | 31923 ft | 503 kts | 70° |
| 2026-05-05 06:25 | 56.09437 | 82.87128 | 32254 ft | 505 kts | 72° |
| 2026-05-05 06:25 | 56.10145 | 82.93316 | 32519 ft | 508 kts | 73° |
| 2026-05-05 06:25 | 56.10848 | 82.99526 | 32811 ft | 508 kts | 73° |
| 2026-05-05 06:26 | 56.11574 | 83.05678 | 33209 ft | 506 kts | 72° |
| 2026-05-05 06:26 | 56.12335 | 83.11859 | 33659 ft | 504 kts | 72° |
| 2026-05-05 06:26 | 56.13108 | 83.17967 | 34051 ft | 503 kts | 72° |
| 2026-05-05 06:26 | 56.13888 | 83.24076 | 34292 ft | 503 kts | 72° |
| 2026-05-05 06:27 | 56.14661 | 83.30177 | 34592 ft | 502 kts | 72° |
| 2026-05-05 06:27 | 56.16218 | 83.42380 | 34997 ft | 503 kts | 72° |
| 2026-05-05 06:28 | 56.17861 | 83.54559 | 35005 ft | 502 kts | 72° |
| 2026-05-05 06:28 | 56.19485 | 83.66669 | 35010 ft | 496 kts | 72° |
| 2026-05-05 06:29 | 56.21073 | 83.78709 | 35017 ft | 495 kts | 72° |
| 2026-05-05 06:29 | 56.22646 | 83.90762 | 35018 ft | 494 kts | 72° |
| 2026-05-05 06:30 | 56.24198 | 84.02782 | 35022 ft | 494 kts | 72° |
| 2026-05-05 06:30 | 56.25703 | 84.14832 | 35020 ft | 494 kts | 73° |
| 2026-05-05 06:31 | 56.27189 | 84.26915 | 35043 ft | 495 kts | 73° |
| 2026-05-05 06:31 | 56.28672 | 84.39027 | 35028 ft | 496 kts | 73° |
| 2026-05-05 06:32 | 56.30149 | 84.51172 | 35019 ft | 497 kts | 73° |
| 2026-05-05 06:32 | 56.31617 | 84.63347 | 35028 ft | 498 kts | 73° |
| 2026-05-05 06:33 | 56.33075 | 84.75553 | 35029 ft | 499 kts | 73° |
| 2026-05-05 06:33 | 56.34521 | 84.87776 | 35061 ft | 499 kts | 73° |
| 2026-05-05 06:34 | 56.35958 | 85.00020 | 35050 ft | 499 kts | 73° |
| 2026-05-05 06:34 | 56.37384 | 85.12271 | 35050 ft | 499 kts | 73° |
| 2026-05-05 06:35 | 56.39428 | 85.24077 | 35041 ft | 487 kts | 58° |
| 2026-05-05 06:35 | 56.42862 | 85.34437 | 35025 ft | 479 kts | 50° |
| 2026-05-05 06:36 | 56.46456 | 85.44588 | 35044 ft | 479 kts | 51° |
| 2026-05-05 06:36 | 56.50002 | 85.54812 | 35018 ft | 480 kts | 51° |
| 2026-05-05 06:37 | 56.53508 | 85.65088 | 35015 ft | 479 kts | 51° |
| 2026-05-05 06:37 | 56.56995 | 85.75367 | 35023 ft | 479 kts | 51° |
| 2026-05-05 06:38 | 56.60478 | 85.85670 | 35020 ft | 479 kts | 51° |
| 2026-05-05 06:38 | 56.63955 | 85.95986 | 35038 ft | 479 kts | 52° |
| 2026-05-05 06:39 | 56.67430 | 86.06334 | 35014 ft | 479 kts | 51° |
| 2026-05-05 06:39 | 56.70901 | 86.16674 | 35016 ft | 479 kts | 52° |
| 2026-05-05 06:40 | 56.74367 | 86.27039 | 35017 ft | 479 kts | 52° |
| 2026-05-05 06:40 | 56.77824 | 86.37429 | 35012 ft | 479 kts | 52° |
| 2026-05-05 06:41 | 56.81256 | 86.47789 | 35013 ft | 480 kts | 52° |
| 2026-05-05 06:41 | 56.84669 | 86.58142 | 35019 ft | 480 kts | 52° |
| 2026-05-05 06:42 | 56.88104 | 86.68605 | 35008 ft | 481 kts | 52° |
| 2026-05-05 06:42 | 56.91532 | 86.79093 | 35006 ft | 480 kts | 52° |
| 2026-05-05 06:43 | 56.94952 | 86.89602 | 35003 ft | 480 kts | 52° |
| 2026-05-05 06:43 | 56.98369 | 87.00142 | 35000 ft | 480 kts | 53° |
| 2026-05-05 06:44 | 57.01768 | 87.10680 | 35019 ft | 480 kts | 53° |
| 2026-05-05 06:44 | 57.05154 | 87.21227 | 34998 ft | 479 kts | 53° |
| 2026-05-05 06:45 | 57.08524 | 87.31771 | 35013 ft | 478 kts | 53° |
| 2026-05-05 06:45 | 57.11880 | 87.42318 | 34996 ft | 477 kts | 53° |
| 2026-05-05 06:46 | 57.15211 | 87.52829 | 34994 ft | 476 kts | 53° |
| 2026-05-05 06:46 | 57.18534 | 87.63364 | 35003 ft | 476 kts | 53° |
| 2026-05-05 06:47 | 57.21845 | 87.73910 | 34989 ft | 475 kts | 54° |
| 2026-05-05 06:47 | 57.25139 | 87.84446 | 34983 ft | 474 kts | 54° |
| 2026-05-05 06:48 | 57.28418 | 87.94983 | 34985 ft | 473 kts | 54° |
| 2026-05-05 06:48 | 57.31675 | 88.05491 | 34991 ft | 472 kts | 54° |
| 2026-05-05 06:49 | 57.34929 | 88.16034 | 34989 ft | 471 kts | 54° |
| 2026-05-05 06:49 | 57.38152 | 88.26598 | 35020 ft | 471 kts | 54° |
| 2026-05-05 06:50 | 57.41354 | 88.37193 | 34997 ft | 470 kts | 54° |
| 2026-05-05 06:50 | 57.44536 | 88.47767 | 34987 ft | 469 kts | 54° |
| 2026-05-05 06:51 | 57.47704 | 88.58330 | 34997 ft | 468 kts | 54° |
| 2026-05-05 06:51 | 57.50861 | 88.68902 | 34989 ft | 467 kts | 55° |
| 2026-05-05 06:52 | 57.53940 | 88.79257 | 34989 ft | 466 kts | 55° |
| 2026-05-05 06:52 | 57.57067 | 88.89818 | 34997 ft | 465 kts | 55° |
| 2026-05-05 06:53 | 57.60176 | 89.00371 | 34986 ft | 464 kts | 56° |
| 2026-05-05 06:53 | 57.63263 | 89.10898 | 34993 ft | 463 kts | 56° |
| 2026-05-05 06:54 | 57.66337 | 89.21425 | 35009 ft | 462 kts | 56° |
| 2026-05-05 06:54 | 57.69405 | 89.31975 | 34999 ft | 462 kts | 56° |
| 2026-05-05 06:55 | 57.72441 | 89.42458 | 34994 ft | 461 kts | 56° |
| 2026-05-05 06:55 | 57.75519 | 89.53033 | 34997 ft | 461 kts | 56° |
| 2026-05-05 06:56 | 57.78591 | 89.63591 | 35003 ft | 462 kts | 56° |
| 2026-05-05 06:56 | 57.81655 | 89.74179 | 34993 ft | 463 kts | 56° |
| 2026-05-05 06:57 | 57.84695 | 89.84743 | 34995 ft | 464 kts | 56° |
| 2026-05-05 06:57 | 57.87774 | 89.95493 | 34994 ft | 464 kts | 57° |
| 2026-05-05 06:58 | 57.90818 | 90.06172 | 35009 ft | 465 kts | 57° |
| 2026-05-05 06:58 | 57.93863 | 90.16907 | 35011 ft | 465 kts | 58° |
| 2026-05-05 06:59 | 57.96900 | 90.27663 | 35003 ft | 465 kts | 58° |
| 2026-05-05 06:59 | 57.99923 | 90.38418 | 35005 ft | 464 kts | 58° |
| 2026-05-05 07:00 | 58.02933 | 90.49181 | 35007 ft | 463 kts | 58° |
| 2026-05-05 07:00 | 58.05909 | 90.59868 | 35006 ft | 463 kts | 58° |
| 2026-05-05 07:01 | 58.08876 | 90.70574 | 35018 ft | 462 kts | 58° |
| 2026-05-05 07:01 | 58.11340 | 90.79504 | 35009 ft | 460 kts | 58° |
| 2026-05-05 07:02 | 58.14282 | 90.90212 | 35003 ft | 459 kts | 58° |
| 2026-05-05 07:02 | 58.17211 | 91.00922 | 35014 ft | 457 kts | 58° |
| 2026-05-05 07:03 | 58.20117 | 91.11598 | 35024 ft | 456 kts | 59° |
| 2026-05-05 07:03 | 58.23009 | 91.22274 | 35010 ft | 455 kts | 59° |
| 2026-05-05 07:04 | 58.25887 | 91.32940 | 35023 ft | 454 kts | 58° |
| 2026-05-05 07:04 | 58.28739 | 91.43588 | 35023 ft | 452 kts | 58° |
| 2026-05-05 07:05 | 58.31572 | 91.54248 | 35029 ft | 451 kts | 59° |
| 2026-05-05 07:05 | 58.34386 | 91.64884 | 35030 ft | 450 kts | 59° |
| 2026-05-05 07:06 | 58.37187 | 91.75517 | 35051 ft | 449 kts | 59° |
| 2026-05-05 07:06 | 58.39975 | 91.86147 | 35043 ft | 449 kts | 59° |
| 2026-05-05 07:07 | 58.42755 | 91.96792 | 35045 ft | 448 kts | 58° |
| 2026-05-05 07:07 | 58.45476 | 92.07510 | 35046 ft | 451 kts | 64° |
| 2026-05-05 07:08 | 58.46849 | 92.19221 | 35044 ft | 463 kts | 83° |
| 2026-05-05 07:08 | 58.46916 | 92.31619 | 35053 ft | 464 kts | 86° |
| 2026-05-05 07:09 | 58.46870 | 92.43854 | 35056 ft | 463 kts | 86° |
| 2026-05-05 07:09 | 58.46856 | 92.56258 | 35075 ft | 464 kts | 85° |
| 2026-05-05 07:10 | 58.46866 | 92.68542 | 35068 ft | 463 kts | 85° |
| 2026-05-05 07:10 | 58.46875 | 92.80833 | 35073 ft | 463 kts | 85° |
| 2026-05-05 07:11 | 58.46873 | 92.93181 | 35075 ft | 463 kts | 85° |
| 2026-05-05 07:11 | 58.46857 | 93.05455 | 35072 ft | 463 kts | 85° |
| 2026-05-05 07:12 | 58.46829 | 93.17749 | 35093 ft | 463 kts | 85° |
| 2026-05-05 07:12 | 58.46790 | 93.30014 | 35098 ft | 462 kts | 85° |
| 2026-05-05 07:13 | 58.46737 | 93.42287 | 35086 ft | 461 kts | 85° |
| 2026-05-05 07:13 | 58.46674 | 93.54456 | 35095 ft | 461 kts | 85° |
| 2026-05-05 07:14 | 58.46599 | 93.66677 | 35095 ft | 460 kts | 86° |
| 2026-05-05 07:14 | 58.46513 | 93.78970 | 35125 ft | 460 kts | 86° |
| 2026-05-05 07:15 | 58.46415 | 93.91170 | 35113 ft | 459 kts | 86° |
| 2026-05-05 07:15 | 58.46306 | 94.03348 | 35108 ft | 458 kts | 86° |
| 2026-05-05 07:16 | 58.46185 | 94.15499 | 35113 ft | 458 kts | 86° |
| 2026-05-05 07:16 | 58.46053 | 94.27654 | 35095 ft | 458 kts | 86° |
| 2026-05-05 07:17 | 58.45910 | 94.39809 | 35150 ft | 457 kts | 87° |
| 2026-05-05 07:17 | 58.45756 | 94.51912 | 35122 ft | 456 kts | 87° |
| 2026-05-05 07:18 | 58.45590 | 94.64013 | 35110 ft | 455 kts | 87° |
| 2026-05-05 07:18 | 58.45413 | 94.76083 | 35109 ft | 454 kts | 87° |
| 2026-05-05 07:19 | 58.45227 | 94.88096 | 35110 ft | 454 kts | 88° |
| 2026-05-05 07:19 | 58.45028 | 95.00139 | 35147 ft | 453 kts | 88° |
| 2026-05-05 07:20 | 58.44822 | 95.12119 | 35117 ft | 453 kts | 88° |
| 2026-05-05 07:20 | 58.44590 | 95.24118 | 35110 ft | 453 kts | 88° |
| 2026-05-05 07:21 | 58.44293 | 95.36110 | 35108 ft | 453 kts | 89° |
| 2026-05-05 07:21 | 58.43978 | 95.48116 | 35107 ft | 452 kts | 89° |
| 2026-05-05 07:22 | 58.43660 | 95.60100 | 35115 ft | 452 kts | 89° |
| 2026-05-05 07:22 | 58.43335 | 95.72072 | 35113 ft | 452 kts | 89° |
| 2026-05-05 07:23 | 58.42999 | 95.84021 | 35106 ft | 452 kts | 89° |
| 2026-05-05 07:23 | 58.42652 | 95.95986 | 35106 ft | 452 kts | 89° |
| 2026-05-05 07:24 | 58.42293 | 96.07954 | 35109 ft | 452 kts | 89° |
| 2026-05-05 07:24 | 58.41924 | 96.19890 | 35115 ft | 453 kts | 89° |
| 2026-05-05 07:25 | 58.41543 | 96.31899 | 35109 ft | 454 kts | 90° |
| 2026-05-05 07:25 | 58.41150 | 96.43923 | 35105 ft | 454 kts | 90° |
| 2026-05-05 07:26 | 58.40743 | 96.55945 | 35099 ft | 455 kts | 90° |
| 2026-05-05 07:26 | 58.40324 | 96.67916 | 35093 ft | 454 kts | 90° |
| 2026-05-05 07:27 | 58.39893 | 96.79937 | 35084 ft | 454 kts | 90° |
| 2026-05-05 07:27 | 58.39452 | 96.91937 | 35095 ft | 454 kts | 91° |
| 2026-05-05 07:28 | 58.39001 | 97.03942 | 35093 ft | 453 kts | 91° |
| 2026-05-05 07:28 | 58.38539 | 97.15917 | 35095 ft | 453 kts | 91° |
| 2026-05-05 07:29 | 58.38068 | 97.27885 | 35095 ft | 453 kts | 92° |
| 2026-05-05 07:29 | 58.37596 | 97.39814 | 35093 ft | 452 kts | 91° |
| 2026-05-05 07:30 | 58.37287 | 97.51741 | 35111 ft | 451 kts | 90° |
| 2026-05-05 07:30 | 58.36896 | 97.69622 | 35095 ft | 450 kts | 90° |
| 2026-05-05 07:31 | 58.36602 | 97.81511 | 35092 ft | 449 kts | 91° |
| 2026-05-05 07:31 | 58.36286 | 97.93367 | 35094 ft | 447 kts | 91° |
| 2026-05-05 07:32 | 58.35958 | 98.05180 | 35098 ft | 446 kts | 91° |
| 2026-05-05 07:32 | 58.35621 | 98.16931 | 35105 ft | 445 kts | 91° |
| 2026-05-05 07:33 | 58.35271 | 98.28767 | 35098 ft | 444 kts | 91° |
| 2026-05-05 07:33 | 58.34914 | 98.40489 | 35098 ft | 443 kts | 91° |
| 2026-05-05 07:34 | 58.34546 | 98.52192 | 35103 ft | 442 kts | 92° |
| 2026-05-05 07:34 | 58.34168 | 98.63874 | 35111 ft | 442 kts | 92° |
| 2026-05-05 07:35 | 58.33781 | 98.75536 | 35109 ft | 441 kts | 92° |
| 2026-05-05 07:35 | 58.33383 | 98.87182 | 35104 ft | 441 kts | 92° |
| 2026-05-05 07:36 | 58.32974 | 98.98842 | 35105 ft | 441 kts | 92° |
| 2026-05-05 07:36 | 58.32557 | 99.10421 | 35108 ft | 441 kts | 92° |
| 2026-05-05 07:37 | 58.32126 | 99.22109 | 35111 ft | 441 kts | 92° |
| 2026-05-05 07:37 | 58.31686 | 99.33761 | 35122 ft | 442 kts | 92° |
| 2026-05-05 07:38 | 58.31234 | 99.45430 | 35104 ft | 443 kts | 93° |
| 2026-05-05 07:38 | 58.30771 | 99.57112 | 35108 ft | 443 kts | 93° |
| 2026-05-05 07:39 | 58.30296 | 99.68806 | 35110 ft | 444 kts | 93° |
| 2026-05-05 07:39 | 58.29812 | 99.80454 | 35112 ft | 444 kts | 93° |
| 2026-05-05 07:40 | 58.29403 | 99.90114 | 35107 ft | 444 kts | 93° |
| 2026-05-05 07:40 | 58.28897 | 100.01822 | 35116 ft | 444 kts | 93° |
| 2026-05-05 07:41 | 58.28381 | 100.13523 | 35108 ft | 444 kts | 94° |
| 2026-05-05 07:41 | 58.27855 | 100.25210 | 35108 ft | 444 kts | 94° |
| 2026-05-05 07:42 | 58.27318 | 100.36881 | 35111 ft | 443 kts | 94° |
| 2026-05-05 07:42 | 58.26772 | 100.48538 | 35106 ft | 443 kts | 94° |
| 2026-05-05 07:43 | 58.26215 | 100.60174 | 35120 ft | 442 kts | 94° |
| 2026-05-05 07:43 | 58.25651 | 100.71758 | 35106 ft | 442 kts | 94° |
| 2026-05-05 07:44 | 58.25075 | 100.83360 | 35103 ft | 441 kts | 94° |
| 2026-05-05 07:44 | 58.24488 | 100.94962 | 35104 ft | 440 kts | 94° |
| 2026-05-05 07:45 | 58.23893 | 101.06525 | 35096 ft | 440 kts | 94° |
| 2026-05-05 07:45 | 58.23289 | 101.18073 | 35109 ft | 440 kts | 94° |
| 2026-05-05 07:46 | 58.22680 | 101.29534 | 35097 ft | 440 kts | 95° |
| 2026-05-05 07:46 | 58.22072 | 101.41073 | 35096 ft | 439 kts | 94° |
| 2026-05-05 07:47 | 58.21469 | 101.52670 | 35098 ft | 439 kts | 94° |
| 2026-05-05 07:47 | 58.20867 | 101.64050 | 35095 ft | 439 kts | 94° |
| 2026-05-05 07:48 | 58.20246 | 101.75549 | 35094 ft | 438 kts | 95° |
| 2026-05-05 07:48 | 58.19613 | 101.87058 | 35088 ft | 439 kts | 95° |
| 2026-05-05 07:49 | 58.18971 | 101.98535 | 35095 ft | 438 kts | 95° |
| 2026-05-05 07:49 | 58.18318 | 102.10031 | 35089 ft | 438 kts | 95° |
| 2026-05-05 07:50 | 58.17656 | 102.21501 | 35094 ft | 438 kts | 95° |
| 2026-05-05 07:50 | 58.16983 | 102.32977 | 35089 ft | 439 kts | 95° |
| 2026-05-05 07:51 | 58.16299 | 102.44463 | 35104 ft | 439 kts | 95° |
| 2026-05-05 07:51 | 58.15606 | 102.55953 | 35093 ft | 439 kts | 95° |
| 2026-05-05 07:52 | 58.14913 | 102.67451 | 35088 ft | 439 kts | 95° |
| 2026-05-05 07:52 | 58.14338 | 102.78928 | 35090 ft | 439 kts | 94° |
| 2026-05-05 07:53 | 58.13792 | 102.90428 | 35086 ft | 439 kts | 94° |
| 2026-05-05 07:53 | 58.13225 | 103.01927 | 35095 ft | 439 kts | 94° |
| 2026-05-05 07:54 | 58.12641 | 103.13379 | 35085 ft | 439 kts | 94° |
| 2026-05-05 07:54 | 58.12040 | 103.24862 | 35083 ft | 438 kts | 94° |
| 2026-05-05 07:55 | 58.11428 | 103.36328 | 35088 ft | 438 kts | 94° |
| 2026-05-05 07:55 | 58.10810 | 103.47740 | 35084 ft | 438 kts | 94° |
| 2026-05-05 07:56 | 58.10179 | 103.59189 | 35082 ft | 438 kts | 94° |
| 2026-05-05 07:56 | 58.09538 | 103.70625 | 35086 ft | 437 kts | 95° |
| 2026-05-05 07:57 | 58.08888 | 103.82049 | 35086 ft | 437 kts | 95° |
| 2026-05-05 07:57 | 58.08227 | 103.93470 | 35082 ft | 437 kts | 95° |
| 2026-05-05 07:58 | 58.07558 | 104.04867 | 35088 ft | 436 kts | 95° |
| 2026-05-05 07:58 | 58.06877 | 104.16268 | 35089 ft | 436 kts | 95° |
| 2026-05-05 07:59 | 58.06188 | 104.27637 | 35095 ft | 436 kts | 95° |
| 2026-05-05 07:59 | 58.05488 | 104.39017 | 35090 ft | 436 kts | 95° |
| 2026-05-05 08:00 | 58.04779 | 104.50387 | 35084 ft | 436 kts | 95° |
| 2026-05-05 08:00 | 58.04059 | 104.61742 | 35084 ft | 436 kts | 95° |
| 2026-05-05 08:01 | 58.03331 | 104.73081 | 35079 ft | 435 kts | 95° |
| 2026-05-05 08:01 | 58.02592 | 104.84418 | 35088 ft | 435 kts | 95° |
| 2026-05-05 08:02 | 58.01843 | 104.95748 | 35077 ft | 435 kts | 95° |
| 2026-05-05 08:02 | 58.01085 | 105.07064 | 35079 ft | 435 kts | 95° |
| 2026-05-05 08:03 | 58.00316 | 105.18383 | 35075 ft | 435 kts | 95° |
| 2026-05-05 08:03 | 57.99538 | 105.29685 | 35075 ft | 435 kts | 96° |
| 2026-05-05 08:04 | 57.98751 | 105.40970 | 35075 ft | 435 kts | 96° |
| 2026-05-05 08:04 | 57.97953 | 105.52271 | 35082 ft | 435 kts | 96° |
| 2026-05-05 08:05 | 57.97145 | 105.63556 | 35067 ft | 435 kts | 96° |
| 2026-05-05 08:05 | 57.96327 | 105.74840 | 35072 ft | 435 kts | 96° |
| 2026-05-05 08:06 | 57.95498 | 105.86131 | 35067 ft | 435 kts | 96° |
| 2026-05-05 08:06 | 57.94660 | 105.97402 | 35068 ft | 435 kts | 96° |
| 2026-05-05 08:07 | 57.93812 | 106.08665 | 35081 ft | 435 kts | 96° |
| 2026-05-05 08:07 | 57.92954 | 106.19931 | 35070 ft | 435 kts | 96° |
| 2026-05-05 08:08 | 57.92085 | 106.31200 | 35063 ft | 435 kts | 96° |
| 2026-05-05 08:08 | 57.91208 | 106.42451 | 35064 ft | 435 kts | 96° |
| 2026-05-05 08:09 | 57.90319 | 106.53712 | 35062 ft | 435 kts | 96° |
| 2026-05-05 08:09 | 57.89421 | 106.64951 | 35057 ft | 435 kts | 96° |
| 2026-05-05 08:10 | 57.88514 | 106.76180 | 35063 ft | 435 kts | 96° |
| 2026-05-05 08:10 | 57.87595 | 106.87418 | 35057 ft | 435 kts | 96° |
| 2026-05-05 08:11 | 57.86669 | 106.98634 | 35055 ft | 435 kts | 96° |
| 2026-05-05 08:11 | 57.85732 | 107.09845 | 35049 ft | 435 kts | 96° |
| 2026-05-05 08:12 | 57.84784 | 107.21060 | 35052 ft | 435 kts | 97° |
| 2026-05-05 08:12 | 57.83829 | 107.32249 | 35055 ft | 435 kts | 97° |
| 2026-05-05 08:13 | 57.82868 | 107.43382 | 35054 ft | 435 kts | 97° |
| 2026-05-05 08:13 | 57.81890 | 107.54583 | 35045 ft | 435 kts | 97° |
| 2026-05-05 08:14 | 57.80903 | 107.65781 | 35039 ft | 435 kts | 97° |
| 2026-05-05 08:14 | 57.79906 | 107.76973 | 35034 ft | 435 kts | 97° |
| 2026-05-05 08:15 | 57.78899 | 107.88161 | 35037 ft | 436 kts | 97° |
| 2026-05-05 08:15 | 57.77883 | 107.99358 | 35033 ft | 436 kts | 97° |
| 2026-05-05 08:16 | 57.76744 | 108.10513 | 35030 ft | 437 kts | 102° |
| 2026-05-05 08:16 | 57.75089 | 108.21480 | 35038 ft | 438 kts | 104° |
| 2026-05-05 08:17 | 57.73347 | 108.32412 | 35032 ft | 438 kts | 104° |
| 2026-05-05 08:17 | 57.71635 | 108.43368 | 35036 ft | 438 kts | 103° |
| 2026-05-05 08:18 | 57.69941 | 108.54318 | 35035 ft | 439 kts | 103° |
| 2026-05-05 08:18 | 57.68323 | 108.64754 | 35033 ft | 439 kts | 103° |
| 2026-05-05 08:19 | 57.66614 | 108.75704 | 35031 ft | 439 kts | 103° |
| 2026-05-05 08:19 | 57.64894 | 108.86650 | 35028 ft | 439 kts | 103° |
| 2026-05-05 08:20 | 57.63164 | 108.97585 | 35027 ft | 439 kts | 104° |
| 2026-05-05 08:20 | 57.61423 | 109.08521 | 35035 ft | 440 kts | 104° |
| 2026-05-05 08:21 | 57.59675 | 109.19447 | 35034 ft | 440 kts | 104° |
| 2026-05-05 08:21 | 57.57917 | 109.30382 | 35027 ft | 440 kts | 104° |
| 2026-05-05 08:22 | 57.56470 | 109.39459 | 35029 ft | 440 kts | 103° |
| 2026-05-05 08:22 | 57.54732 | 109.50381 | 35028 ft | 440 kts | 103° |
| 2026-05-05 08:23 | 57.52993 | 109.61289 | 35046 ft | 440 kts | 103° |
| 2026-05-05 08:23 | 57.51215 | 109.72273 | 35038 ft | 440 kts | 103° |
| 2026-05-05 08:24 | 57.49438 | 109.83162 | 35039 ft | 440 kts | 104° |
| 2026-05-05 08:24 | 57.47652 | 109.94041 | 35040 ft | 440 kts | 104° |
| 2026-05-05 08:25 | 57.45858 | 110.04907 | 35027 ft | 440 kts | 104° |
| 2026-05-05 08:25 | 57.44054 | 110.15765 | 35033 ft | 440 kts | 104° |
| 2026-05-05 08:26 | 57.42242 | 110.26610 | 35027 ft | 440 kts | 104° |
| 2026-05-05 08:26 | 57.40413 | 110.37482 | 35027 ft | 441 kts | 104° |
| 2026-05-05 08:27 | 57.38579 | 110.48301 | 35028 ft | 441 kts | 104° |
| 2026-05-05 08:27 | 57.36732 | 110.59136 | 35015 ft | 441 kts | 104° |
| 2026-05-05 08:28 | 57.34878 | 110.69967 | 35022 ft | 441 kts | 104° |
| 2026-05-05 08:28 | 57.33013 | 110.80816 | 35033 ft | 442 kts | 104° |
| 2026-05-05 08:29 | 57.31140 | 110.91627 | 35027 ft | 442 kts | 104° |
| 2026-05-05 08:30 | 57.28299 | 111.07874 | 35021 ft | 443 kts | 105° |
| 2026-05-05 08:30 | 57.26395 | 111.18700 | 35016 ft | 443 kts | 105° |
| 2026-05-05 08:31 | 57.24478 | 111.29512 | 35035 ft | 443 kts | 105° |
| 2026-05-05 08:31 | 57.22556 | 111.40337 | 35018 ft | 443 kts | 104° |
| 2026-05-05 08:32 | 57.20622 | 111.51147 | 35018 ft | 443 kts | 104° |
| 2026-05-05 08:32 | 57.18668 | 111.61956 | 35015 ft | 444 kts | 105° |
| 2026-05-05 08:33 | 57.16675 | 111.72715 | 35000 ft | 444 kts | 105° |
| 2026-05-05 08:33 | 57.14672 | 111.83480 | 35033 ft | 444 kts | 105° |
| 2026-05-05 08:34 | 57.12646 | 111.94323 | 35016 ft | 445 kts | 105° |
| 2026-05-05 08:34 | 57.10623 | 112.05078 | 35017 ft | 445 kts | 105° |
| 2026-05-05 08:35 | 57.08580 | 112.15848 | 35011 ft | 446 kts | 105° |
| 2026-05-05 08:35 | 57.06535 | 112.26600 | 35024 ft | 446 kts | 105° |
| 2026-05-05 08:36 | 57.04471 | 112.37361 | 35035 ft | 447 kts | 106° |
| 2026-05-05 08:36 | 57.02389 | 112.48168 | 35027 ft | 448 kts | 105° |
| 2026-05-05 08:37 | 57.00292 | 112.59004 | 35020 ft | 449 kts | 106° |
| 2026-05-05 08:37 | 56.98192 | 112.69796 | 35020 ft | 449 kts | 106° |
| 2026-05-05 08:38 | 56.96075 | 112.80637 | 35019 ft | 449 kts | 106° |
| 2026-05-05 08:38 | 56.93960 | 112.91410 | 35030 ft | 450 kts | 106° |
| 2026-05-05 08:39 | 56.91821 | 113.02249 | 35027 ft | 450 kts | 106° |
| 2026-05-05 08:39 | 56.89675 | 113.13037 | 35019 ft | 450 kts | 106° |
| 2026-05-05 08:40 | 56.87522 | 113.23779 | 35024 ft | 450 kts | 106° |
| 2026-05-05 08:40 | 56.85367 | 113.34498 | 35012 ft | 450 kts | 107° |
| 2026-05-05 08:41 | 56.83188 | 113.45258 | 35024 ft | 450 kts | 106° |
| 2026-05-05 08:41 | 56.81034 | 113.55848 | 35007 ft | 451 kts | 107° |
| 2026-05-05 08:42 | 56.78839 | 113.66582 | 35003 ft | 451 kts | 107° |
| 2026-05-05 08:42 | 56.76624 | 113.77360 | 35003 ft | 451 kts | 107° |
| 2026-05-05 08:43 | 56.74415 | 113.88054 | 35017 ft | 451 kts | 107° |
| 2026-05-05 08:43 | 56.72200 | 113.98749 | 35009 ft | 452 kts | 107° |
| 2026-05-05 08:44 | 56.69970 | 114.09444 | 34989 ft | 452 kts | 107° |
| 2026-05-05 08:44 | 56.67718 | 114.20175 | 34988 ft | 452 kts | 107° |
| 2026-05-05 08:45 | 56.65468 | 114.30864 | 34983 ft | 451 kts | 107° |
| 2026-05-05 08:45 | 56.63597 | 114.39696 | 34985 ft | 452 kts | 107° |
| 2026-05-05 08:46 | 56.61325 | 114.50363 | 34988 ft | 452 kts | 107° |
| 2026-05-05 08:46 | 56.59026 | 114.61104 | 34961 ft | 453 kts | 107° |
| 2026-05-05 08:47 | 56.56732 | 114.71760 | 34955 ft | 453 kts | 108° |
| 2026-05-05 08:47 | 56.54430 | 114.82402 | 34946 ft | 454 kts | 108° |
| 2026-05-05 08:48 | 56.52114 | 114.93052 | 34931 ft | 455 kts | 108° |
| 2026-05-05 08:48 | 56.49769 | 115.03780 | 34939 ft | 456 kts | 108° |
| 2026-05-05 08:49 | 56.47420 | 115.14471 | 34934 ft | 457 kts | 108° |
| 2026-05-05 08:49 | 56.45066 | 115.25129 | 34916 ft | 457 kts | 108° |
| 2026-05-05 08:50 | 56.42694 | 115.35812 | 34917 ft | 458 kts | 108° |
| 2026-05-05 08:50 | 56.40307 | 115.46512 | 34896 ft | 459 kts | 108° |
| 2026-05-05 08:51 | 56.37913 | 115.57185 | 34907 ft | 459 kts | 109° |
| 2026-05-05 08:51 | 56.35501 | 115.67884 | 34887 ft | 460 kts | 109° |
| 2026-05-05 08:52 | 56.33090 | 115.78525 | 34882 ft | 460 kts | 109° |
| 2026-05-05 08:52 | 56.30645 | 115.89261 | 34873 ft | 459 kts | 110° |
| 2026-05-05 08:53 | 56.28217 | 115.99873 | 35188 ft | 463 kts | 110° |
| 2026-05-05 08:53 | 56.26992 | 116.05206 | 35414 ft | 462 kts | 110° |
| 2026-05-05 08:53 | 56.25743 | 116.10626 | 35652 ft | 461 kts | 110° |
| 2026-05-05 08:53 | 56.24511 | 116.15962 | 35895 ft | 461 kts | 110° |
| 2026-05-05 08:54 | 56.23284 | 116.21262 | 36131 ft | 461 kts | 110° |
| 2026-05-05 08:54 | 56.22048 | 116.26588 | 36371 ft | 461 kts | 110° |
| 2026-05-05 08:54 | 56.20810 | 116.31908 | 36621 ft | 462 kts | 110° |
| 2026-05-05 08:54 | 56.19569 | 116.37228 | 36857 ft | 462 kts | 110° |
| 2026-05-05 08:55 | 56.18321 | 116.42569 | 36836 ft | 466 kts | 110° |
| 2026-05-05 08:55 | 56.15792 | 116.53354 | 36850 ft | 471 kts | 110° |
| 2026-05-05 08:56 | 56.13240 | 116.64171 | 36855 ft | 471 kts | 110° |
| 2026-05-05 08:56 | 56.10682 | 116.74952 | 36848 ft | 471 kts | 110° |
| 2026-05-05 08:57 | 56.08115 | 116.85731 | 36842 ft | 471 kts | 111° |
| 2026-05-05 08:57 | 56.05537 | 116.96501 | 36838 ft | 471 kts | 111° |
| 2026-05-05 08:58 | 56.02923 | 117.07360 | 36821 ft | 471 kts | 111° |
| 2026-05-05 08:58 | 56.00340 | 117.18041 | 36817 ft | 472 kts | 111° |
| 2026-05-05 08:59 | 55.97707 | 117.28860 | 36807 ft | 472 kts | 111° |
| 2026-05-05 08:59 | 55.95079 | 117.39600 | 36808 ft | 472 kts | 111° |
| 2026-05-05 09:00 | 55.92452 | 117.50304 | 36794 ft | 472 kts | 111° |
| 2026-05-05 09:00 | 55.89800 | 117.61061 | 36799 ft | 473 kts | 112° |
| 2026-05-05 09:01 | 55.87151 | 117.71752 | 36787 ft | 473 kts | 112° |
| 2026-05-05 09:01 | 55.84491 | 117.82442 | 36789 ft | 474 kts | 112° |
| 2026-05-05 09:02 | 55.81798 | 117.93223 | 36773 ft | 474 kts | 112° |
| 2026-05-05 09:02 | 55.79111 | 118.03924 | 36773 ft | 474 kts | 112° |
| 2026-05-05 09:03 | 55.76420 | 118.14615 | 36782 ft | 473 kts | 113° |
| 2026-05-05 09:03 | 55.73737 | 118.25288 | 36772 ft | 473 kts | 112° |
| 2026-05-05 09:04 | 55.71022 | 118.36000 | 36763 ft | 473 kts | 111° |
| 2026-05-05 09:04 | 55.68316 | 118.46647 | 36763 ft | 473 kts | 112° |
| 2026-05-05 09:05 | 55.65594 | 118.57269 | 36756 ft | 473 kts | 112° |
| 2026-05-05 09:05 | 55.62874 | 118.67869 | 36755 ft | 473 kts | 112° |
| 2026-05-05 09:06 | 55.60140 | 118.78466 | 36748 ft | 474 kts | 113° |
| 2026-05-05 09:06 | 55.57392 | 118.89057 | 36756 ft | 474 kts | 113° |
| 2026-05-05 09:07 | 55.54688 | 118.99655 | 36755 ft | 474 kts | 111° |
| 2026-05-05 09:07 | 55.52218 | 119.10444 | 36746 ft | 474 kts | 110° |
| 2026-05-05 09:08 | 55.49753 | 119.21287 | 36750 ft | 474 kts | 110° |
| 2026-05-05 09:08 | 55.47257 | 119.32028 | 36741 ft | 473 kts | 111° |
| 2026-05-05 09:09 | 55.44739 | 119.42754 | 36736 ft | 474 kts | 110° |
| 2026-05-05 09:09 | 55.42132 | 119.53410 | 36732 ft | 474 kts | 113° |
| 2026-05-05 09:10 | 55.39729 | 119.62176 | 36749 ft | 474 kts | 115° |
| 2026-05-05 09:10 | 55.36806 | 119.72557 | 36740 ft | 474 kts | 115° |
| 2026-05-05 09:11 | 55.33899 | 119.82932 | 36736 ft | 474 kts | 115° |
| 2026-05-05 09:11 | 55.30983 | 119.93375 | 36742 ft | 473 kts | 115° |
| 2026-05-05 09:12 | 55.28079 | 120.03758 | 36744 ft | 473 kts | 115° |
| 2026-05-05 09:12 | 55.25177 | 120.14094 | 36744 ft | 473 kts | 115° |
| 2026-05-05 09:13 | 55.22261 | 120.24439 | 36746 ft | 473 kts | 115° |
| 2026-05-05 09:13 | 55.19334 | 120.34770 | 36737 ft | 473 kts | 115° |
| 2026-05-05 09:14 | 55.16386 | 120.45124 | 36742 ft | 473 kts | 115° |
| 2026-05-05 09:14 | 55.13432 | 120.55454 | 36743 ft | 474 kts | 115° |
| 2026-05-05 09:15 | 55.10483 | 120.65724 | 36744 ft | 474 kts | 116° |
| 2026-05-05 09:15 | 55.07520 | 120.75997 | 36743 ft | 474 kts | 116° |
| 2026-05-05 09:16 | 55.04546 | 120.86259 | 36740 ft | 474 kts | 116° |
| 2026-05-05 09:16 | 55.01543 | 120.96582 | 36727 ft | 474 kts | 116° |
| 2026-05-05 09:17 | 54.98549 | 121.06833 | 36724 ft | 475 kts | 116° |
| 2026-05-05 09:17 | 54.95549 | 121.17069 | 36725 ft | 475 kts | 116° |
| 2026-05-05 09:18 | 54.92532 | 121.27301 | 36713 ft | 475 kts | 116° |
| 2026-05-05 09:18 | 54.89506 | 121.37511 | 36716 ft | 475 kts | 116° |
| 2026-05-05 09:19 | 54.86468 | 121.47706 | 36719 ft | 475 kts | 117° |
| 2026-05-05 09:19 | 54.83403 | 121.57957 | 36715 ft | 475 kts | 117° |
| 2026-05-05 09:20 | 54.80354 | 121.68131 | 36715 ft | 476 kts | 117° |
| 2026-05-05 09:20 | 54.77294 | 121.78293 | 36710 ft | 476 kts | 117° |
| 2026-05-05 09:21 | 54.74198 | 121.88517 | 36705 ft | 476 kts | 117° |
| 2026-05-05 09:21 | 54.71122 | 121.98645 | 36704 ft | 476 kts | 117° |
| 2026-05-05 09:22 | 54.68040 | 122.08764 | 36705 ft | 476 kts | 117° |
| 2026-05-05 09:22 | 54.64912 | 122.19019 | 36698 ft | 476 kts | 117° |
| 2026-05-05 09:23 | 54.61893 | 122.29182 | 36697 ft | 475 kts | 117° |
| 2026-05-05 09:23 | 54.58865 | 122.39322 | 36691 ft | 475 kts | 117° |
| 2026-05-05 09:24 | 54.55817 | 122.49430 | 36691 ft | 475 kts | 117° |
| 2026-05-05 09:24 | 54.52739 | 122.59507 | 36686 ft | 476 kts | 117° |
| 2026-05-05 09:25 | 54.49600 | 122.69634 | 36680 ft | 476 kts | 118° |
| 2026-05-05 09:25 | 54.46467 | 122.79676 | 36653 ft | 476 kts | 118° |
| 2026-05-05 09:26 | 54.43327 | 122.89706 | 36664 ft | 477 kts | 118° |
| 2026-05-05 09:26 | 54.40180 | 122.99747 | 36646 ft | 477 kts | 118° |
| 2026-05-05 09:27 | 54.37025 | 123.09771 | 36652 ft | 478 kts | 118° |
| 2026-05-05 09:27 | 54.33834 | 123.19871 | 36630 ft | 479 kts | 118° |
| 2026-05-05 09:28 | 54.30659 | 123.29874 | 36636 ft | 479 kts | 118° |
| 2026-05-05 09:28 | 54.27466 | 123.39890 | 36620 ft | 479 kts | 119° |
| 2026-05-05 09:29 | 54.24275 | 123.49870 | 36623 ft | 479 kts | 119° |
| 2026-05-05 09:29 | 54.21043 | 123.59926 | 36625 ft | 479 kts | 119° |
| 2026-05-05 09:30 | 54.17827 | 123.69895 | 36609 ft | 479 kts | 119° |
| 2026-05-05 09:30 | 54.14614 | 123.79823 | 36621 ft | 478 kts | 119° |
| 2026-05-05 09:31 | 54.11388 | 123.89751 | 36611 ft | 478 kts | 119° |
| 2026-05-05 09:31 | 54.08155 | 123.99661 | 36612 ft | 478 kts | 119° |
| 2026-05-05 09:32 | 54.05443 | 124.07944 | 36605 ft | 479 kts | 120° |
| 2026-05-05 09:32 | 54.02169 | 124.17904 | 36606 ft | 479 kts | 120° |
| 2026-05-05 09:33 | 53.98909 | 124.27782 | 36604 ft | 479 kts | 120° |
| 2026-05-05 09:33 | 53.95643 | 124.37664 | 36594 ft | 479 kts | 120° |
| 2026-05-05 09:34 | 53.92383 | 124.47480 | 36594 ft | 479 kts | 120° |
| 2026-05-05 09:34 | 53.89071 | 124.57384 | 36589 ft | 479 kts | 120° |
| 2026-05-05 09:35 | 53.85780 | 124.67194 | 36592 ft | 479 kts | 120° |
| 2026-05-05 09:35 | 53.80817 | 124.81916 | 36580 ft | 480 kts | 120° |
| 2026-05-05 09:36 | 53.77497 | 124.91715 | 36584 ft | 480 kts | 120° |
| 2026-05-05 09:36 | 53.74146 | 125.01558 | 36571 ft | 481 kts | 121° |
| 2026-05-05 09:37 | 53.70800 | 125.11349 | 36570 ft | 481 kts | 121° |
| 2026-05-05 09:37 | 53.67449 | 125.21105 | 36570 ft | 482 kts | 121° |
| 2026-05-05 09:38 | 53.64086 | 125.30877 | 36569 ft | 482 kts | 120° |
| 2026-05-05 09:38 | 53.60716 | 125.40629 | 36561 ft | 482 kts | 121° |
| 2026-05-05 09:39 | 53.57331 | 125.50388 | 36562 ft | 482 kts | 121° |
| 2026-05-05 09:39 | 53.53941 | 125.60111 | 36555 ft | 483 kts | 121° |
| 2026-05-05 09:40 | 53.50526 | 125.69862 | 36558 ft | 483 kts | 121° |
| 2026-05-05 09:40 | 53.47111 | 125.79535 | 36554 ft | 482 kts | 123° |
| 2026-05-05 09:41 | 53.43099 | 125.88627 | 36549 ft | 481 kts | 129° |
| 2026-05-05 09:41 | 53.38909 | 125.97364 | 36553 ft | 481 kts | 130° |
| 2026-05-05 09:42 | 53.34719 | 126.06137 | 36542 ft | 482 kts | 129° |
| 2026-05-05 09:42 | 53.30553 | 126.14952 | 36545 ft | 482 kts | 129° |
| 2026-05-05 09:43 | 53.26383 | 126.23786 | 36535 ft | 482 kts | 129° |
| 2026-05-05 09:43 | 53.22225 | 126.32568 | 36541 ft | 483 kts | 129° |
| 2026-05-05 09:44 | 53.18049 | 126.41351 | 36537 ft | 483 kts | 129° |
| 2026-05-05 09:44 | 53.13840 | 126.50169 | 36539 ft | 483 kts | 130° |
| 2026-05-05 09:45 | 53.09640 | 126.58938 | 36533 ft | 483 kts | 130° |
| 2026-05-05 09:45 | 53.05449 | 126.67655 | 36541 ft | 483 kts | 130° |
| 2026-05-05 09:46 | 53.01230 | 126.76403 | 36539 ft | 484 kts | 130° |
| 2026-05-05 09:46 | 52.97038 | 126.85063 | 36543 ft | 484 kts | 130° |
| 2026-05-05 09:47 | 52.92791 | 126.93805 | 36538 ft | 484 kts | 130° |
| 2026-05-05 09:47 | 52.88573 | 127.02457 | 36542 ft | 484 kts | 130° |
| 2026-05-05 09:48 | 52.84341 | 127.11111 | 36541 ft | 484 kts | 130° |
| 2026-05-05 09:48 | 52.80097 | 127.19774 | 36539 ft | 484 kts | 130° |
| 2026-05-05 09:49 | 52.75846 | 127.28430 | 36541 ft | 484 kts | 130° |
| 2026-05-05 09:49 | 52.71602 | 127.37034 | 36541 ft | 484 kts | 130° |
| 2026-05-05 09:50 | 52.67345 | 127.45637 | 36541 ft | 484 kts | 131° |
| 2026-05-05 09:50 | 52.63063 | 127.54202 | 36544 ft | 484 kts | 131° |
| 2026-05-05 09:51 | 52.58771 | 127.62731 | 36533 ft | 484 kts | 131° |
| 2026-05-05 09:51 | 52.54472 | 127.71246 | 36553 ft | 484 kts | 131° |
| 2026-05-05 09:52 | 52.50169 | 127.79746 | 36555 ft | 484 kts | 131° |
| 2026-05-05 09:52 | 52.45862 | 127.88225 | 36533 ft | 484 kts | 131° |
| 2026-05-05 09:53 | 52.41554 | 127.96679 | 36533 ft | 484 kts | 131° |
| 2026-05-05 09:53 | 52.37234 | 128.05127 | 36542 ft | 484 kts | 131° |
| 2026-05-05 09:54 | 52.32914 | 128.13547 | 36537 ft | 484 kts | 132° |
| 2026-05-05 09:54 | 52.28574 | 128.21974 | 36536 ft | 485 kts | 132° |
| 2026-05-05 09:55 | 52.24223 | 128.30385 | 36527 ft | 485 kts | 132° |
| 2026-05-05 09:55 | 52.19860 | 128.38798 | 36537 ft | 485 kts | 132° |
| 2026-05-05 09:56 | 52.15496 | 128.47192 | 36547 ft | 486 kts | 132° |
| 2026-05-05 09:56 | 52.11111 | 128.55598 | 36541 ft | 486 kts | 132° |
| 2026-05-05 09:57 | 52.06746 | 128.63940 | 36541 ft | 486 kts | 132° |
| 2026-05-05 09:57 | 52.02356 | 128.72299 | 36540 ft | 486 kts | 133° |
| 2026-05-05 09:58 | 51.98710 | 128.79220 | 36540 ft | 486 kts | 133° |
| 2026-05-05 09:58 | 51.94306 | 128.87555 | 36544 ft | 486 kts | 133° |
| 2026-05-05 09:59 | 51.89905 | 128.95858 | 36542 ft | 486 kts | 133° |
| 2026-05-05 09:59 | 51.85480 | 129.04179 | 36539 ft | 486 kts | 133° |
| 2026-05-05 10:00 | 51.81077 | 129.12433 | 36547 ft | 486 kts | 133° |
| 2026-05-05 10:00 | 51.76649 | 129.20705 | 36552 ft | 486 kts | 133° |
| 2026-05-05 10:01 | 51.72227 | 129.28936 | 36548 ft | 486 kts | 133° |
| 2026-05-05 10:01 | 51.67785 | 129.37179 | 36541 ft | 486 kts | 133° |
| 2026-05-05 10:02 | 51.63350 | 129.45381 | 36547 ft | 487 kts | 133° |
| 2026-05-05 10:02 | 51.58891 | 129.53603 | 36545 ft | 487 kts | 134° |
| 2026-05-05 10:03 | 51.54449 | 129.61768 | 36548 ft | 487 kts | 134° |
| 2026-05-05 10:03 | 51.49979 | 129.69956 | 36537 ft | 487 kts | 134° |
| 2026-05-05 10:04 | 51.45509 | 129.78119 | 36548 ft | 487 kts | 134° |
| 2026-05-05 10:04 | 51.41021 | 129.86288 | 36543 ft | 488 kts | 134° |
| 2026-05-05 10:05 | 51.36540 | 129.94423 | 36543 ft | 488 kts | 134° |
| 2026-05-05 10:05 | 51.32052 | 130.02519 | 36543 ft | 488 kts | 135° |
| 2026-05-05 10:06 | 51.27482 | 130.10529 | 36541 ft | 487 kts | 135° |
| 2026-05-05 10:06 | 51.22889 | 130.18497 | 36543 ft | 488 kts | 136° |
| 2026-05-05 10:07 | 51.18292 | 130.26469 | 36545 ft | 489 kts | 136° |
| 2026-05-05 10:07 | 51.13703 | 130.34424 | 36540 ft | 489 kts | 136° |
| 2026-05-05 10:08 | 51.09083 | 130.42409 | 36549 ft | 490 kts | 136° |
| 2026-05-05 10:08 | 51.04489 | 130.50324 | 36549 ft | 491 kts | 136° |
| 2026-05-05 10:09 | 50.99858 | 130.58278 | 36547 ft | 492 kts | 136° |
| 2026-05-05 10:09 | 50.95209 | 130.66234 | 36551 ft | 492 kts | 136° |
| 2026-05-05 10:10 | 50.90516 | 130.74243 | 36553 ft | 492 kts | 136° |
| 2026-05-05 10:10 | 50.85854 | 130.82173 | 36555 ft | 492 kts | 136° |
| 2026-05-05 10:11 | 50.81204 | 130.90061 | 36531 ft | 492 kts | 136° |
| 2026-05-05 10:11 | 50.76573 | 130.97888 | 36539 ft | 491 kts | 136° |
| 2026-05-05 10:12 | 50.71899 | 131.05761 | 36551 ft | 491 kts | 136° |
| 2026-05-05 10:12 | 50.67227 | 131.13608 | 36544 ft | 491 kts | 136° |
| 2026-05-05 10:13 | 50.62545 | 131.21447 | 36539 ft | 491 kts | 137° |
| 2026-05-05 10:13 | 50.57861 | 131.29265 | 36546 ft | 491 kts | 137° |
| 2026-05-05 10:14 | 50.53173 | 131.37065 | 36542 ft | 491 kts | 137° |
| 2026-05-05 10:14 | 50.48478 | 131.44858 | 36541 ft | 491 kts | 137° |
| 2026-05-05 10:15 | 50.43776 | 131.52639 | 36538 ft | 492 kts | 137° |
| 2026-05-05 10:15 | 50.39063 | 131.60417 | 36540 ft | 492 kts | 137° |
| 2026-05-05 10:16 | 50.34330 | 131.68179 | 36547 ft | 493 kts | 137° |
| 2026-05-05 10:16 | 50.29590 | 131.75949 | 36544 ft | 494 kts | 137° |
| 2026-05-05 10:17 | 50.24846 | 131.83696 | 36534 ft | 494 kts | 137° |
| 2026-05-05 10:17 | 50.20094 | 131.91449 | 36539 ft | 494 kts | 137° |
| 2026-05-05 10:18 | 50.15330 | 131.99176 | 36531 ft | 494 kts | 137° |
| 2026-05-05 10:18 | 50.10559 | 132.06885 | 36508 ft | 494 kts | 138° |
| 2026-05-05 10:19 | 50.05750 | 132.14627 | 36525 ft | 494 kts | 138° |
| 2026-05-05 10:19 | 50.01409 | 132.22960 | 36534 ft | 501 kts | 125° |
| 2026-05-05 10:20 | 49.97764 | 132.32198 | 36532 ft | 502 kts | 123° |
| 2026-05-05 10:20 | 49.94139 | 132.41455 | 36515 ft | 502 kts | 124° |
| 2026-05-05 10:21 | 49.90465 | 132.50665 | 36533 ft | 502 kts | 125° |
| 2026-05-05 10:21 | 49.86757 | 132.59838 | 36520 ft | 502 kts | 125° |
| 2026-05-05 10:22 | 49.83035 | 132.68991 | 36532 ft | 502 kts | 125° |
| 2026-05-05 10:22 | 49.81166 | 132.73573 | 36381 ft | 504 kts | 125° |
| 2026-05-05 10:22 | 49.79289 | 132.78174 | 36090 ft | 507 kts | 126° |
| 2026-05-05 10:23 | 49.77404 | 132.82788 | 35846 ft | 508 kts | 126° |
| 2026-05-05 10:23 | 49.75517 | 132.87400 | 35599 ft | 508 kts | 126° |
| 2026-05-05 10:23 | 49.73627 | 132.92011 | 35355 ft | 508 kts | 126° |
| 2026-05-05 10:23 | 49.71729 | 132.96635 | 35114 ft | 508 kts | 126° |
| 2026-05-05 10:24 | 49.69834 | 133.01241 | 34878 ft | 509 kts | 126° |
| 2026-05-05 10:24 | 49.67930 | 133.05860 | 34638 ft | 509 kts | 127° |
| 2026-05-05 10:24 | 49.66031 | 133.10461 | 34217 ft | 509 kts | 127° |
| 2026-05-05 10:24 | 49.64117 | 133.15088 | 33482 ft | 513 kts | 127° |
| 2026-05-05 10:25 | 49.62191 | 133.19735 | 32612 ft | 516 kts | 127° |
| 2026-05-05 10:25 | 49.60247 | 133.24417 | 31813 ft | 518 kts | 127° |
| 2026-05-05 10:25 | 49.58302 | 133.29091 | 31121 ft | 519 kts | 128° |
| 2026-05-05 10:25 | 49.56358 | 133.33755 | 30574 ft | 516 kts | 128° |
| 2026-05-05 10:26 | 49.54415 | 133.38404 | 30001 ft | 515 kts | 128° |
| 2026-05-05 10:26 | 49.52476 | 133.43037 | 29394 ft | 515 kts | 128° |
| 2026-05-05 10:26 | 49.50534 | 133.47670 | 28720 ft | 515 kts | 128° |
| 2026-05-05 10:26 | 49.48600 | 133.52281 | 28157 ft | 514 kts | 128° |
| 2026-05-05 10:27 | 49.46655 | 133.56911 | 27582 ft | 515 kts | 128° |
| 2026-05-05 10:27 | 49.44712 | 133.61530 | 26999 ft | 514 kts | 128° |
| 2026-05-05 10:27 | 49.42778 | 133.66121 | 26427 ft | 510 kts | 127° |
| 2026-05-05 10:27 | 49.40865 | 133.70673 | 25851 ft | 505 kts | 127° |
| 2026-05-05 10:28 | 49.38968 | 133.75184 | 25292 ft | 500 kts | 127° |
| 2026-05-05 10:28 | 49.37094 | 133.79647 | 24742 ft | 496 kts | 127° |
| 2026-05-05 10:28 | 49.35227 | 133.84076 | 24188 ft | 491 kts | 127° |
| 2026-05-05 10:28 | 49.33375 | 133.88449 | 23636 ft | 487 kts | 127° |
| 2026-05-05 10:29 | 49.31538 | 133.92780 | 23079 ft | 482 kts | 127° |
| 2026-05-05 10:29 | 49.29720 | 133.97074 | 22420 ft | 477 kts | 126° |
| 2026-05-05 10:29 | 49.27940 | 134.01278 | 21834 ft | 464 kts | 126° |
| 2026-05-05 10:29 | 49.26205 | 134.05363 | 21305 ft | 451 kts | 126° |
| 2026-05-05 10:30 | 49.24512 | 134.09326 | 20785 ft | 440 kts | 126° |
| 2026-05-05 10:30 | 49.22848 | 134.13224 | 20265 ft | 434 kts | 126° |
| 2026-05-05 10:30 | 49.21222 | 134.17029 | 19756 ft | 423 kts | 126° |
| 2026-05-05 10:30 | 49.19622 | 134.20764 | 19251 ft | 416 kts | 126° |
| 2026-05-05 10:31 | 49.18039 | 134.24449 | 18742 ft | 413 kts | 126° |
| 2026-05-05 10:31 | 49.16475 | 134.28087 | 18231 ft | 405 kts | 126° |
| 2026-05-05 10:31 | 49.14951 | 134.31626 | 17732 ft | 395 kts | 126° |
| 2026-05-05 10:31 | 49.13445 | 134.35122 | 17210 ft | 391 kts | 126° |
| 2026-05-05 10:32 | 49.11960 | 134.38570 | 16707 ft | 386 kts | 126° |
| 2026-05-05 10:32 | 49.10494 | 134.41968 | 16216 ft | 382 kts | 126° |
| 2026-05-05 10:32 | 49.08842 | 134.45092 | 15694 ft | 374 kts | 140° |
| 2026-05-05 10:32 | 49.06826 | 134.47528 | 15225 ft | 369 kts | 153° |
| 2026-05-05 10:33 | 49.04572 | 134.49280 | 14707 ft | 360 kts | 163° |
| 2026-05-05 10:33 | 49.02265 | 134.50708 | 14203 ft | 356 kts | 163° |
| 2026-05-05 10:33 | 48.99976 | 134.52091 | 13727 ft | 353 kts | 163° |
| 2026-05-05 10:33 | 48.97703 | 134.53456 | 13220 ft | 350 kts | 164° |
| 2026-05-05 10:34 | 48.95430 | 134.54824 | 12689 ft | 352 kts | 164° |
| 2026-05-05 10:34 | 48.93162 | 134.56197 | 12177 ft | 349 kts | 163° |
| 2026-05-05 10:34 | 48.90918 | 134.57563 | 11678 ft | 346 kts | 163° |
| 2026-05-05 10:34 | 48.88697 | 134.58921 | 11184 ft | 342 kts | 163° |
| 2026-05-05 10:35 | 48.86497 | 134.60267 | 10705 ft | 339 kts | 163° |
| 2026-05-05 10:35 | 48.84318 | 134.61598 | 10219 ft | 336 kts | 164° |
| 2026-05-05 10:35 | 48.82165 | 134.62913 | 9878 ft | 328 kts | 164° |
| 2026-05-05 10:35 | 48.80121 | 134.64164 | 9765 ft | 315 kts | 164° |
| 2026-05-05 10:36 | 48.78127 | 134.65383 | 9627 ft | 303 kts | 165° |
| 2026-05-05 10:36 | 48.76213 | 134.66553 | 9486 ft | 292 kts | 165° |
| 2026-05-05 10:36 | 48.74342 | 134.67688 | 9129 ft | 289 kts | 165° |
| 2026-05-05 10:36 | 48.72479 | 134.68814 | 8732 ft | 288 kts | 165° |
| 2026-05-05 10:37 | 48.70628 | 134.69926 | 8432 ft | 284 kts | 165° |
| 2026-05-05 10:37 | 48.68807 | 134.71022 | 8167 ft | 279 kts | 165° |
| 2026-05-05 10:37 | 48.67006 | 134.72095 | 7819 ft | 277 kts | 166° |
| 2026-05-05 10:37 | 48.65791 | 134.72806 | 7553 ft | 278 kts | 165° |
| 2026-05-05 10:38 | 48.63991 | 134.73866 | 7202 ft | 278 kts | 165° |
| 2026-05-05 10:38 | 48.62195 | 134.74962 | 6975 ft | 278 kts | 165° |
| 2026-05-05 10:38 | 48.60414 | 134.76058 | 6820 ft | 274 kts | 165° |
| 2026-05-05 10:38 | 48.58658 | 134.77140 | 6600 ft | 271 kts | 165° |
| 2026-05-05 10:39 | 48.56915 | 134.78209 | 6365 ft | 272 kts | 165° |
| 2026-05-05 10:39 | 48.55152 | 134.79285 | 6122 ft | 274 kts | 164° |
| 2026-05-05 10:39 | 48.53375 | 134.80369 | 5786 ft | 276 kts | 163° |
| 2026-05-05 10:39 | 48.51596 | 134.81448 | 5419 ft | 276 kts | 164° |
| 2026-05-05 10:40 | 48.49839 | 134.82508 | 5098 ft | 275 kts | 164° |
| 2026-05-05 10:40 | 48.48041 | 134.83586 | 4780 ft | 274 kts | 164° |
| 2026-05-05 10:40 | 48.46297 | 134.84629 | 4445 ft | 273 kts | 163° |
| 2026-05-05 10:40 | 48.44560 | 134.85686 | 4291 ft | 265 kts | 161° |
| 2026-05-05 10:41 | 48.43091 | 134.87307 | 4206 ft | 262 kts | 135° |
| 2026-05-05 10:41 | 48.41890 | 134.89353 | 4091 ft | 253 kts | 135° |
| 2026-05-05 10:41 | 48.40755 | 134.91288 | 3939 ft | 247 kts | 135° |
| 2026-05-05 10:41 | 48.39631 | 134.93188 | 3877 ft | 232 kts | 135° |
| 2026-05-05 10:42 | 48.37910 | 134.97055 | 3412 ft | 221 kts | 93° |
| 2026-05-05 10:42 | 48.38258 | 134.99174 | 3179 ft | 203 kts | 46° |
| 2026-05-05 10:42 | 48.39216 | 135.00636 | 2969 ft | 197 kts | 37° |
| 2026-05-05 10:43 | 48.40263 | 135.02010 | 2808 ft | 200 kts | 33° |
| 2026-05-05 10:43 | 48.41352 | 135.03319 | 2676 ft | 199 kts | 32° |
| 2026-05-05 10:43 | 48.42440 | 135.04621 | 2480 ft | 201 kts | 32° |
| 2026-05-05 10:43 | 48.43523 | 135.05947 | 2234 ft | 200 kts | 35° |
| 2026-05-05 10:44 | 48.44549 | 135.07325 | 2005 ft | 194 kts | 36° |
| 2026-05-05 10:44 | 48.45533 | 135.08670 | 1776 ft | 187 kts | 36° |
| 2026-05-05 10:44 | 48.46466 | 135.09949 | 1535 ft | 176 kts | 36° |
| 2026-05-05 10:44 | 48.47347 | 135.11150 | 1339 ft | 167 kts | 36° |
| 2026-05-05 10:45 | 48.48164 | 135.12263 | 1149 ft | 153 kts | 36° |
| 2026-05-05 10:45 | 48.48934 | 135.13309 | 941 ft | 143 kts | 37° |
| 2026-05-05 10:45 | 48.49666 | 135.14297 | 767 ft | 139 kts | 37° |
| 2026-05-05 10:45 | 48.50372 | 135.15261 | 577 ft | 135 kts | 38° |
| 2026-05-05 10:46 | 48.51076 | 135.16209 | 413 ft | 136 kts | 38° |
| 2026-05-05 10:46 | 48.51785 | 135.17178 | 250 ft | 139 kts | 39° |
| 2026-05-05 10:46 | 48.52400 | 135.18014 | 241 ft | 90 kts | 42° |
| 2026-05-05 10:46 | 48.52708 | 135.18433 | 243 ft | 29 kts | 42° |
| 2026-05-05 10:47 | 48.52805 | 135.18565 | 246 ft | 17 kts | 42° |
| 2026-05-05 10:47 | 48.52889 | 135.18680 | 246 ft | 11 kts | 42° |
| 2026-05-05 10:47 | 48.52945 | 135.18710 | 247 ft | 9 kts | 348° |
| 2026-05-05 10:47 | 48.52991 | 135.18656 | 249 ft | 8 kts | 311° |
| 2026-05-05 10:48 | 48.53029 | 135.18592 | 248 ft | 8 kts | 312° |
| 2026-05-05 10:48 | 48.53060 | 135.18523 | 248 ft | 8 kts | 282° |
| 2026-05-05 10:48 | 48.53039 | 135.18452 | 247 ft | 8 kts | 226° |
| 2026-05-05 10:48 | 48.52997 | 135.18394 | 247 ft | 9 kts | 222° |
| 2026-05-05 10:49 | 48.52944 | 135.18321 | 246 ft | 11 kts | 223° |
| 2026-05-05 10:49 | 48.52886 | 135.18241 | 245 ft | 11 kts | 222° |
| 2026-05-05 10:49 | 48.52830 | 135.18163 | 244 ft | 9 kts | 222° |
| 2026-05-05 10:49 | 48.52790 | 135.18108 | 243 ft | 8 kts | 222° |
| 2026-05-05 10:50 | 48.52787 | 135.18040 | 243 ft | 7 kts | 306° |
| 2026-05-05 10:50 | 48.52820 | 135.17984 | 243 ft | 7 kts | 312° |
| 2026-05-05 10:50 | 48.52854 | 135.17928 | 243 ft | 8 kts | 312° |
| 2026-05-05 10:50 | 48.52890 | 135.17867 | 243 ft | 8 kts | 312° |
| 2026-05-05 10:51 | 48.52925 | 135.17807 | 243 ft | 7 kts | 307° |
| 2026-05-05 10:51 | 48.52923 | 135.17735 | 243 ft | 7 kts | 236° |
| 2026-05-05 10:51 | 48.52887 | 135.17684 | 242 ft | 7 kts | 221° |
| 2026-05-05 10:51 | 48.52852 | 135.17635 | 242 ft | 7 kts | 222° |
| 2026-05-05 10:52 | 48.52816 | 135.17587 | 242 ft | 7 kts | 222° |
| 2026-05-05 10:52 | 48.52782 | 135.17540 | 242 ft | 7 kts | 222° |
| 2026-05-05 10:52 | 48.52741 | 135.17523 | 242 ft | 6 kts | 164° |
| 2026-05-05 10:52 | 48.52707 | 135.17566 | 242 ft | 6 kts | 140° |
| 2026-05-05 10:53 | 48.52665 | 135.17571 | 243 ft | 6 kts | 204° |
| 2026-05-05 10:53 | 48.52632 | 135.17530 | 243 ft | 6 kts | 221° |
| 2026-05-05 10:53 | 48.52601 | 135.17487 | 243 ft | 6 kts | 222° |
| 2026-05-05 10:53 | 48.52570 | 135.17446 | 244 ft | 6 kts | 221° |
| 2026-05-05 10:54 | 48.52540 | 135.17405 | 244 ft | 6 kts | 221° |
| 2026-05-05 10:54 | 48.52510 | 135.17365 | 244 ft | 6 kts | 221° |
| 2026-05-05 10:54 | 48.52484 | 135.17323 | 245 ft | 5 kts | 239° |
| 2026-05-05 10:54 | 48.52489 | 135.17278 | 245 ft | 4 kts | 302° |
| 2026-05-05 10:55 | 48.52507 | 135.17246 | 245 ft | 4 kts | 311° |
| 2026-05-05 10:55 | 48.52524 | 135.17218 | 245 ft | 2 kts | 312° |
| 2026-05-05 10:55 | 48.52530 | 135.17206 | 245 ft | 0 kts | 312° |